createdAt,value
2024-02-29T00:02:21.283Z,12.43
2024-02-29T00:04:48.160Z,11.45
2024-02-29T00:07:15.099Z,12.82
2024-02-29T00:09:42.048Z,11.63
2024-02-29T00:12:09.142Z,10.95
2024-02-29T00:14:38.902Z,12.73
2024-02-29T00:17:06.040Z,11.27
2024-02-29T00:19:33.639Z,12.48
2024-02-29T00:22:00.569Z,12.05
2024-02-29T00:24:27.503Z,10.23
2024-02-29T00:26:54.403Z,12.38
2024-02-29T00:29:21.286Z,12.77
2024-02-29T00:31:48.262Z,10.48
2024-02-29T00:34:15.524Z,11.35
2024-02-29T00:36:42.652Z,10.73
2024-02-29T00:39:14.785Z,11.95
2024-02-29T00:41:42.871Z,11.05
2024-02-29T00:44:10.905Z,11.63
2024-02-29T00:46:41.486Z,12.07
2024-02-29T00:49:08.968Z,13.82
2024-02-29T00:51:36.089Z,13.18
2024-02-29T00:54:03.043Z,12.30
2024-02-29T00:56:30.002Z,13.23
2024-02-29T00:58:56.920Z,12.38
2024-02-29T01:01:23.938Z,12.30
2024-02-29T01:03:50.979Z,12.65
2024-02-29T01:06:17.877Z,13.07
2024-02-29T01:08:44.768Z,12.10
2024-02-29T01:11:11.746Z,12.40
2024-02-29T01:13:38.662Z,14.18
2024-02-29T01:16:05.930Z,15.02
2024-02-29T01:18:33.115Z,12.30
2024-02-29T01:21:00.134Z,14.60
2024-02-29T01:23:27.015Z,14.40
2024-02-29T01:25:53.875Z,14.15
2024-02-29T01:28:20.752Z,13.65
2024-02-29T01:30:47.708Z,15.05
2024-02-29T01:33:14.623Z,16.73
2024-02-29T01:35:41.556Z,15.32
2024-02-29T01:38:08.433Z,17.13
2024-02-29T01:40:35.317Z,13.70
2024-02-29T01:43:02.277Z,19.60
2024-02-29T01:45:29.329Z,12.82
2024-02-29T01:47:56.259Z,13.73
2024-02-29T01:50:24.347Z,13.75
2024-02-29T01:52:52.051Z,15.52
2024-02-29T01:55:19.095Z,16.27
2024-02-29T01:57:46.217Z,15.43
2024-02-29T02:00:13.602Z,13.15
2024-02-29T02:02:40.739Z,13.32
2024-02-29T02:05:08.585Z,14.10
2024-02-29T02:07:35.700Z,13.32
2024-02-29T02:10:03.920Z,13.18
2024-02-29T02:12:30.878Z,14.35
2024-02-29T02:14:58.015Z,12.43
2024-02-29T02:17:24.949Z,11.68
2024-02-29T02:19:53.082Z,13.82
2024-02-29T02:22:19.960Z,13.13
2024-02-29T02:24:46.853Z,12.32
2024-02-29T02:27:13.987Z,14.35
2024-02-29T02:29:40.849Z,14.45
2024-02-29T02:32:07.767Z,13.88
2024-02-29T02:34:34.769Z,12.63
2024-02-29T02:37:01.788Z,13.43
2024-02-29T02:39:28.790Z,12.50
2024-02-29T02:41:55.659Z,14.65
2024-02-29T02:44:22.546Z,14.15
2024-02-29T02:46:49.431Z,12.82
2024-02-29T02:49:16.358Z,13.38
2024-02-29T02:51:43.271Z,13.88
2024-02-29T02:54:10.149Z,12.88
2024-02-29T02:56:37.017Z,14.68
2024-02-29T02:59:03.907Z,14.30
2024-02-29T03:01:30.858Z,25.33
2024-02-29T03:03:57.866Z,18.08
2024-02-29T03:06:24.767Z,22.50
2024-02-29T03:08:51.789Z,17.25
2024-02-29T03:11:18.660Z,58.72
2024-02-29T03:13:45.531Z,49.78
2024-02-29T03:16:12.507Z,29.25
2024-02-29T03:18:39.438Z,278.13
2024-02-29T03:21:06.334Z,61.42
2024-02-29T03:23:33.237Z,23.48
2024-02-29T03:26:00.140Z,17.15
2024-02-29T03:28:27.020Z,14.07
2024-02-29T03:30:54.005Z,25.70
2024-02-29T03:33:20.894Z,218.88
2024-02-29T03:35:47.961Z,54.05
2024-02-29T03:38:16.647Z,19.92
2024-02-29T03:40:43.522Z,17.33
2024-02-29T03:43:10.458Z,14.95
2024-02-29T03:45:37.535Z,15.75
2024-02-29T03:48:04.970Z,13.68
2024-02-29T03:50:31.878Z,13.73
2024-02-29T03:52:58.817Z,20.98
2024-02-29T03:55:25.736Z,16.88
2024-02-29T03:57:52.665Z,16.77
2024-02-29T04:00:19.844Z,23.75
2024-02-29T04:02:47.767Z,17.00
2024-02-29T04:05:14.676Z,23.17
2024-02-29T04:07:41.934Z,75.15
2024-02-29T04:10:09.447Z,37.30
2024-02-29T04:12:36.475Z,19.58
2024-02-29T04:15:03.390Z,19.77
2024-02-29T04:17:30.771Z,21.20
2024-02-29T04:19:57.651Z,17.67
2024-02-29T04:22:24.859Z,42.05
2024-02-29T04:24:52.179Z,47.33
2024-02-29T04:27:19.182Z,156.65
2024-02-29T04:29:46.746Z,133.43
2024-02-29T04:32:13.666Z,35.40
2024-02-29T04:34:40.700Z,21.30
2024-02-29T04:37:07.811Z,29.17
2024-02-29T04:39:35.252Z,37.50
2024-02-29T04:42:02.202Z,20.27
2024-02-29T04:44:29.083Z,21.55
2024-02-29T04:46:55.993Z,18.02
2024-02-29T04:49:22.869Z,18.55
2024-02-29T04:51:49.794Z,20.98
2024-02-29T04:54:19.896Z,18.85
2024-02-29T04:56:46.792Z,26.48
2024-02-29T04:59:14.042Z,24.27
2024-02-29T05:01:41.110Z,19.95
2024-02-29T05:04:08.082Z,15.88
2024-02-29T05:06:35.056Z,19.00
2024-02-29T05:09:02.100Z,20.73
2024-02-29T05:11:29.013Z,18.63
2024-02-29T05:13:56.187Z,21.45
2024-02-29T05:16:23.172Z,17.85
2024-02-29T05:18:50.207Z,44.08
2024-02-29T05:21:17.130Z,23.25
2024-02-29T05:23:44.023Z,17.83
2024-02-29T05:26:11.940Z,16.92
2024-02-29T05:28:38.814Z,21.95
2024-02-29T05:31:05.944Z,21.95
2024-02-29T05:33:32.979Z,16.23
2024-02-29T05:35:59.890Z,17.50
2024-02-29T05:38:26.944Z,16.88
2024-02-29T05:40:53.999Z,15.57
2024-02-29T05:43:20.952Z,17.10
2024-02-29T05:45:47.948Z,17.58
2024-02-29T05:48:14.918Z,20.90
2024-02-29T05:50:41.886Z,19.10
2024-02-29T05:53:08.839Z,17.27
2024-02-29T05:55:35.740Z,17.52
2024-02-29T05:58:02.619Z,16.08
2024-02-29T06:00:29.509Z,13.30
2024-02-29T06:02:56.407Z,14.20
2024-02-29T06:05:23.399Z,11.55
2024-02-29T06:07:50.303Z,11.82
2024-02-29T06:10:18.758Z,12.95
2024-02-29T06:12:45.694Z,15.50
2024-02-29T06:15:12.653Z,11.50
2024-02-29T06:17:40.037Z,17.00
2024-02-29T06:20:07.630Z,14.00
2024-02-29T06:22:34.792Z,21.88
2024-02-29T06:25:01.738Z,12.40
2024-02-29T06:27:28.652Z,15.90
2024-02-29T06:29:55.514Z,12.63
2024-02-29T06:32:22.402Z,11.80
2024-02-29T06:34:49.463Z,13.13
2024-02-29T06:37:17.004Z,10.68
2024-02-29T06:39:43.989Z,10.57
2024-02-29T06:42:10.857Z,9.43
2024-02-29T06:44:37.769Z,11.73
2024-02-29T06:47:04.907Z,19.75
2024-02-29T06:49:31.805Z,16.98
2024-02-29T06:51:58.706Z,23.08
2024-02-29T06:54:25.585Z,15.68
2024-02-29T06:56:52.464Z,19.20
2024-02-29T06:59:19.362Z,15.88
2024-02-29T07:01:46.354Z,13.00
2024-02-29T07:04:13.402Z,25.95
2024-02-29T07:06:40.434Z,12.32
2024-02-29T07:09:07.318Z,11.75
2024-02-29T07:11:34.480Z,15.43
2024-02-29T07:14:01.455Z,11.95
2024-02-29T07:16:28.357Z,19.63
2024-02-29T07:18:55.201Z,15.02
2024-02-29T07:21:22.093Z,17.90
2024-02-29T07:23:49.010Z,26.25
2024-02-29T07:26:15.941Z,13.05
2024-02-29T07:28:42.797Z,15.02
2024-02-29T07:31:09.737Z,16.00
2024-02-29T07:33:36.741Z,17.70
2024-02-29T07:36:03.756Z,39.65
2024-02-29T07:38:30.625Z,17.08
2024-02-29T07:40:57.478Z,13.10
2024-02-29T07:43:24.529Z,15.63
2024-02-29T07:45:51.652Z,15.15
2024-02-29T07:48:18.625Z,16.50
2024-02-29T07:50:45.516Z,14.48
2024-02-29T07:53:12.407Z,44.83
2024-02-29T07:55:39.381Z,34.97
2024-02-29T07:58:06.275Z,36.13
2024-02-29T08:00:33.285Z,29.90
2024-02-29T08:03:00.178Z,29.88
2024-02-29T08:05:27.036Z,35.97
2024-02-29T08:07:53.931Z,21.98
2024-02-29T08:10:20.861Z,31.30
2024-02-29T08:12:47.860Z,37.55
2024-02-29T08:15:14.833Z,89.45
2024-02-29T08:17:42.001Z,25.58
2024-02-29T08:20:09.348Z,27.30
2024-02-29T08:22:36.837Z,29.23
2024-02-29T08:25:04.273Z,42.17
2024-02-29T08:27:31.191Z,40.85
2024-02-29T08:29:58.080Z,35.25
2024-02-29T08:32:25.012Z,81.22
2024-02-29T08:34:51.963Z,79.40
2024-02-29T08:37:18.913Z,76.20
2024-02-29T08:39:45.887Z,37.08
2024-02-29T08:42:12.790Z,34.40
2024-02-29T08:44:43.730Z,34.10
2024-02-29T08:47:10.602Z,40.10
2024-02-29T08:49:37.510Z,34.33
2024-02-29T08:52:04.714Z,33.78
2024-02-29T08:54:31.753Z,34.25
2024-02-29T08:56:58.638Z,36.05
2024-02-29T08:59:25.530Z,36.00
2024-02-29T09:01:52.477Z,30.02
2024-02-29T09:04:19.447Z,39.05
2024-02-29T09:06:46.448Z,37.05
2024-02-29T09:09:14.058Z,35.05
2024-02-29T09:11:40.937Z,49.40
2024-02-29T09:14:07.801Z,34.65
2024-02-29T09:16:34.708Z,36.95
2024-02-29T09:19:03.845Z,46.25
2024-02-29T09:21:31.250Z,42.30
2024-02-29T09:23:58.138Z,43.78
2024-02-29T09:26:25.006Z,40.50
2024-02-29T09:28:51.918Z,39.05
2024-02-29T09:31:18.854Z,35.97
2024-02-29T09:33:45.894Z,65.40
2024-02-29T09:36:13.193Z,36.30
2024-02-29T09:38:40.098Z,36.97
2024-02-29T09:41:18.919Z,40.53
2024-02-29T09:43:55.457Z,51.10
2024-02-29T09:46:22.622Z,36.70
2024-02-29T09:48:50.852Z,47.63
2024-02-29T09:51:21.565Z,36.63
2024-02-29T09:53:54.190Z,43.40
2024-02-29T09:56:24.829Z,40.00
2024-02-29T09:58:53.776Z,43.63
2024-02-29T10:01:21.190Z,41.88
2024-02-29T10:03:48.326Z,54.75
2024-02-29T10:06:15.382Z,42.78
2024-02-29T10:08:42.393Z,40.78
2024-02-29T10:11:09.364Z,41.17
2024-02-29T10:13:43.060Z,41.28
2024-02-29T10:16:11.057Z,41.50
2024-02-29T10:18:38.758Z,36.97
2024-02-29T10:21:12.529Z,46.03
2024-02-29T10:23:40.333Z,50.00
2024-02-29T10:26:07.696Z,45.03
2024-02-29T10:28:34.763Z,40.15
2024-02-29T10:31:02.035Z,39.75
2024-02-29T10:33:29.813Z,41.67
2024-02-29T10:35:56.934Z,39.22
2024-02-29T10:38:24.349Z,41.00
2024-02-29T10:40:52.682Z,41.47
2024-02-29T10:43:20.779Z,40.00
2024-02-29T10:45:51.355Z,38.05
2024-02-29T10:48:39.093Z,41.80
2024-02-29T10:51:17.997Z,37.35
2024-02-29T10:54:01.496Z,44.05
2024-02-29T10:56:30.187Z,56.10
2024-02-29T10:59:05.441Z,51.88
2024-02-29T11:01:36.807Z,44.17
2024-02-29T11:04:04.876Z,44.95
2024-02-29T11:06:34.339Z,53.30
2024-02-29T11:09:01.581Z,37.97
2024-02-29T11:11:29.796Z,44.08
2024-02-29T11:14:08.071Z,39.88
2024-02-29T11:16:38.643Z,33.08
2024-02-29T11:19:06.252Z,44.70
2024-02-29T11:21:33.466Z,42.75
2024-02-29T11:24:05.291Z,37.40
2024-02-29T11:26:38.956Z,34.67
2024-02-29T11:29:32.240Z,38.83
2024-02-29T11:31:59.303Z,33.17
2024-02-29T11:34:26.374Z,36.72
2024-02-29T11:36:53.678Z,43.88
2024-02-29T11:39:24.538Z,36.60
2024-02-29T11:42:02.058Z,45.03
2024-02-29T11:44:28.959Z,64.53
2024-02-29T11:46:55.828Z,57.97
2024-02-29T11:49:22.845Z,90.22
2024-02-29T11:51:49.803Z,36.08
2024-02-29T11:54:17.401Z,36.80
2024-02-29T11:56:44.349Z,36.50
2024-02-29T11:59:12.324Z,43.08
2024-02-29T12:01:39.483Z,35.72
2024-02-29T12:04:06.503Z,44.33
2024-02-29T12:06:34.753Z,45.50
2024-02-29T12:09:02.032Z,44.75
2024-02-29T12:11:30.261Z,49.25
2024-02-29T12:13:57.509Z,44.10
2024-02-29T12:16:24.848Z,44.90
2024-02-29T12:18:55.364Z,49.20
2024-02-29T12:21:26.703Z,55.17
2024-02-29T12:23:53.662Z,69.47
2024-02-29T12:26:22.782Z,55.13
2024-02-29T12:28:49.739Z,60.17
2024-02-29T12:31:17.902Z,49.15
2024-02-29T12:33:46.903Z,55.53
2024-02-29T12:36:17.506Z,46.97
2024-02-29T12:38:44.954Z,47.30
2024-02-29T12:41:12.946Z,42.67
2024-02-29T12:43:49.723Z,47.90
2024-02-29T12:46:17.849Z,51.30
2024-02-29T12:48:45.265Z,52.53
2024-02-29T12:51:12.181Z,50.72
2024-02-29T12:53:39.235Z,50.50
2024-02-29T12:56:06.547Z,61.15
2024-02-29T12:58:33.680Z,89.70
2024-02-29T13:01:01.169Z,58.97
2024-02-29T13:03:28.543Z,46.05
2024-02-29T13:05:55.937Z,47.15
2024-02-29T13:08:23.461Z,48.85
2024-02-29T13:10:51.098Z,49.05
2024-02-29T13:13:18.039Z,57.88
2024-02-29T13:15:45.179Z,52.83
2024-02-29T13:18:12.121Z,67.70
2024-02-29T13:20:39.035Z,55.20
2024-02-29T13:23:05.889Z,52.47
2024-02-29T13:25:32.833Z,104.60
2024-02-29T13:28:00.060Z,58.28
2024-02-29T13:30:26.931Z,61.72
2024-02-29T13:32:53.864Z,54.38
2024-02-29T13:35:20.763Z,59.78
2024-02-29T13:37:47.845Z,81.32
2024-02-29T13:40:14.769Z,69.35
2024-02-29T13:42:45.204Z,59.58
2024-02-29T13:45:12.769Z,67.32
2024-02-29T13:47:50.930Z,57.78
2024-02-29T13:50:18.107Z,53.88
2024-02-29T13:52:45.005Z,57.08
2024-02-29T13:55:12.319Z,55.67
2024-02-29T13:57:39.912Z,53.80
2024-02-29T14:00:08.311Z,62.10
2024-02-29T14:02:35.212Z,52.70
2024-02-29T14:05:02.233Z,61.00
2024-02-29T14:07:29.254Z,59.33
2024-02-29T14:09:56.365Z,57.35
2024-02-29T14:12:23.323Z,71.30
2024-02-29T14:14:50.168Z,74.28
2024-02-29T14:17:17.068Z,69.35
2024-02-29T14:19:43.983Z,89.72
2024-02-29T14:22:10.898Z,52.85
2024-02-29T14:24:37.825Z,66.10
2024-02-29T14:27:04.779Z,98.18
2024-02-29T14:29:31.652Z,86.07
2024-02-29T14:31:58.568Z,61.78
2024-02-29T14:34:25.464Z,51.38
2024-02-29T14:36:52.592Z,76.25
2024-02-29T14:39:19.574Z,85.32
2024-02-29T14:41:48.162Z,84.70
2024-02-29T14:44:15.506Z,104.75
2024-02-29T14:46:42.721Z,115.75
2024-02-29T14:49:09.707Z,134.98
2024-02-29T14:51:36.666Z,84.53
2024-02-29T14:54:03.564Z,85.22
2024-02-29T14:56:30.495Z,58.45
2024-02-29T14:58:57.580Z,70.68
2024-02-29T15:01:25.518Z,68.32
2024-02-29T15:03:52.483Z,73.00
2024-02-29T15:06:19.893Z,77.85
2024-02-29T15:08:46.913Z,76.43
2024-02-29T15:11:13.906Z,122.10
2024-02-29T15:13:41.874Z,109.72
2024-02-29T15:16:08.948Z,68.03
2024-02-29T15:18:36.331Z,78.70
2024-02-29T15:21:03.366Z,73.55
2024-02-29T15:23:30.261Z,55.22
2024-02-29T15:25:57.150Z,54.13
2024-02-29T15:28:24.043Z,50.83
2024-02-29T15:30:51.116Z,51.88
2024-02-29T15:33:18.091Z,54.33
2024-02-29T15:35:44.962Z,55.88
2024-02-29T15:38:11.864Z,53.53
2024-02-29T15:40:38.759Z,68.05
2024-02-29T15:43:05.780Z,63.65
2024-02-29T15:45:32.745Z,71.97
2024-02-29T15:47:59.708Z,78.90
2024-02-29T15:50:26.582Z,66.22
2024-02-29T15:52:53.446Z,64.43
2024-02-29T15:55:20.361Z,62.58
2024-02-29T15:57:47.314Z,61.35
2024-02-29T16:00:14.822Z,60.47
2024-02-29T16:02:41.928Z,59.67
2024-02-29T16:05:09.017Z,55.10
2024-02-29T16:07:36.001Z,66.00
2024-02-29T16:10:03.198Z,74.28
2024-02-29T16:12:30.560Z,67.47
2024-02-29T16:14:57.489Z,57.30
2024-02-29T16:17:24.381Z,77.18
2024-02-29T16:19:51.384Z,54.15
2024-02-29T16:22:18.266Z,57.88
2024-02-29T16:24:45.248Z,61.40
2024-02-29T16:27:12.256Z,61.47
2024-02-29T16:29:39.103Z,60.72
2024-02-29T16:32:06.531Z,77.32
2024-02-29T16:34:33.436Z,71.30
2024-02-29T16:37:00.576Z,80.82
2024-02-29T16:39:27.520Z,89.35
2024-02-29T16:41:54.396Z,66.53
2024-02-29T16:44:21.286Z,61.90
2024-02-29T16:46:48.398Z,64.45
2024-02-29T16:49:15.334Z,65.28
2024-02-29T16:51:42.288Z,49.13
2024-02-29T16:54:09.153Z,42.13
2024-02-29T16:56:36.216Z,47.97
2024-02-29T16:59:03.116Z,54.22
2024-02-29T17:01:30.097Z,50.50
2024-02-29T17:03:57.019Z,72.90
2024-02-29T17:06:23.912Z,73.82
2024-02-29T17:08:50.789Z,57.92
2024-02-29T17:11:17.796Z,56.08
2024-02-29T17:13:44.722Z,76.28
2024-02-29T17:16:11.681Z,102.38
2024-02-29T17:18:38.638Z,54.95
2024-02-29T17:21:05.739Z,56.70
2024-02-29T17:23:32.675Z,55.15
2024-02-29T17:25:59.521Z,98.90
2024-02-29T17:28:26.657Z,61.65
2024-02-29T17:30:53.604Z,69.05
2024-02-29T17:33:20.547Z,51.20
2024-02-29T17:35:47.526Z,62.95
2024-02-29T17:38:14.392Z,105.90
2024-02-29T17:40:41.270Z,68.88
2024-02-29T17:43:08.236Z,74.95
2024-02-29T17:45:35.137Z,90.65
2024-02-29T17:48:02.080Z,74.70
2024-02-29T17:50:31.517Z,85.20
2024-02-29T17:52:58.715Z,58.90
2024-02-29T17:55:25.897Z,78.55
2024-02-29T17:57:52.926Z,53.13
2024-02-29T18:00:19.865Z,54.38
2024-02-29T18:02:46.770Z,52.50
2024-02-29T18:05:13.647Z,47.83
2024-02-29T18:07:47.046Z,64.13
2024-02-29T18:10:18.830Z,54.58
2024-02-29T18:12:46.013Z,58.22
2024-02-29T18:15:12.943Z,44.15
2024-02-29T18:17:39.895Z,55.70
2024-02-29T18:20:07.647Z,41.47
2024-02-29T18:22:34.864Z,65.05
2024-02-29T18:25:01.970Z,52.28
2024-02-29T18:27:28.930Z,54.75
2024-02-29T18:29:55.818Z,55.38
2024-02-29T18:32:22.792Z,58.03
2024-02-29T18:34:49.704Z,65.68
2024-02-29T18:37:16.655Z,56.80
2024-02-29T18:39:43.767Z,55.38
2024-02-29T18:42:10.733Z,53.80
2024-02-29T18:44:37.635Z,43.88
2024-02-29T18:47:04.677Z,59.88
2024-02-29T18:49:31.615Z,57.03
2024-02-29T18:51:58.531Z,44.22
2024-02-29T18:54:25.398Z,44.00
2024-02-29T18:56:53.516Z,50.03
2024-02-29T18:59:20.388Z,44.63
2024-02-29T19:01:47.438Z,45.05
2024-02-29T19:04:16.623Z,41.22
2024-02-29T19:06:43.553Z,59.08
2024-02-29T19:09:10.425Z,53.60
2024-02-29T19:11:40.096Z,50.05
2024-02-29T19:14:06.954Z,73.07
2024-02-29T19:16:34.070Z,48.15
2024-02-29T19:19:00.994Z,48.00
2024-02-29T19:21:27.878Z,50.45
2024-02-29T19:23:54.750Z,40.60
2024-02-29T19:26:21.600Z,43.20
2024-02-29T19:28:48.489Z,41.38
2024-02-29T19:31:16.517Z,40.33
2024-02-29T19:33:43.416Z,41.78
2024-02-29T19:36:14.700Z,41.25
2024-02-29T19:38:41.598Z,41.22
2024-02-29T19:41:08.468Z,38.58
2024-02-29T19:43:35.342Z,53.35
2024-02-29T19:46:02.301Z,37.58
2024-02-29T19:48:29.223Z,36.05
2024-02-29T19:50:56.132Z,42.25
2024-02-29T19:53:23.018Z,78.68
2024-02-29T19:55:49.932Z,48.97
2024-02-29T19:58:16.955Z,38.95
2024-02-29T20:00:46.010Z,38.40
2024-02-29T20:03:12.997Z,49.17
2024-02-29T20:05:39.967Z,46.15
2024-02-29T20:08:07.069Z,39.30
2024-02-29T20:10:34.229Z,39.63
2024-02-29T20:13:01.159Z,40.97
2024-02-29T20:15:28.052Z,39.33
2024-02-29T20:17:54.958Z,57.35
2024-02-29T20:20:21.854Z,44.85
2024-02-29T20:22:49.349Z,38.85
2024-02-29T20:25:16.665Z,40.38
2024-02-29T20:27:56.132Z,54.10
2024-02-29T20:30:23.782Z,47.45
2024-02-29T20:32:51.222Z,43.80
2024-02-29T20:35:18.261Z,39.78
2024-02-29T20:37:45.257Z,48.13
2024-02-29T20:40:14.330Z,45.20
2024-02-29T20:42:41.787Z,56.83
2024-02-29T20:45:09.094Z,39.40
2024-02-29T20:47:36.057Z,48.33
2024-02-29T20:50:05.013Z,67.00
2024-02-29T20:52:32.014Z,54.78
2024-02-29T20:54:58.882Z,78.43
2024-02-29T20:57:25.747Z,56.17
2024-02-29T20:59:52.899Z,49.47
2024-02-29T21:02:19.739Z,64.25
2024-02-29T21:04:46.695Z,52.63
2024-02-29T21:07:13.764Z,59.60
2024-02-29T21:09:40.676Z,58.38
2024-02-29T21:12:08.074Z,53.15
2024-02-29T21:14:35.013Z,61.45
2024-02-29T21:17:01.894Z,48.20
2024-02-29T21:19:28.848Z,47.47
2024-02-29T21:21:55.829Z,56.58
2024-02-29T21:24:22.715Z,57.20
2024-02-29T21:26:49.601Z,49.80
2024-02-29T21:29:16.459Z,57.03
2024-02-29T21:31:46.130Z,58.22
2024-02-29T21:34:13.293Z,52.92
2024-02-29T21:36:40.531Z,62.63
2024-02-29T21:39:07.357Z,59.28
2024-02-29T21:41:36.398Z,55.20
2024-02-29T21:44:03.593Z,65.10
2024-02-29T21:46:30.518Z,66.90
2024-02-29T21:48:57.498Z,94.45
2024-02-29T21:51:24.436Z,75.78
2024-02-29T21:53:51.454Z,70.88
2024-02-29T21:56:18.341Z,64.53
2024-02-29T21:58:45.581Z,88.82
2024-02-29T22:01:12.756Z,97.30
2024-02-29T22:03:39.757Z,172.13
2024-02-29T22:06:07.099Z,105.10
2024-02-29T22:08:33.977Z,115.55
2024-02-29T22:11:00.884Z,117.95
2024-02-29T22:13:27.820Z,141.30
2024-02-29T22:15:54.731Z,90.65
2024-02-29T22:18:21.689Z,111.82
2024-02-29T22:20:48.707Z,85.93
2024-02-29T22:23:15.572Z,72.57
2024-02-29T22:25:42.556Z,64.90
2024-02-29T22:28:09.469Z,77.45
2024-02-29T22:30:36.425Z,96.78
2024-02-29T22:33:03.530Z,88.10
2024-02-29T22:35:30.432Z,93.40
2024-02-29T22:37:57.282Z,92.38
2024-02-29T22:40:24.214Z,67.57
2024-02-29T22:42:51.146Z,92.85
2024-02-29T22:45:18.077Z,69.97
2024-02-29T22:47:45.073Z,74.90
2024-02-29T22:50:12.082Z,65.22
2024-02-29T22:52:39.435Z,76.03
2024-02-29T22:55:07.124Z,77.85
2024-02-29T22:57:34.289Z,86.38
2024-02-29T23:00:02.071Z,69.70
2024-02-29T23:02:29.174Z,84.70
2024-02-29T23:04:56.073Z,68.25
2024-02-29T23:07:26.072Z,69.85
2024-02-29T23:09:53.079Z,65.28
2024-02-29T23:12:19.952Z,63.17
2024-02-29T23:14:46.799Z,64.90
2024-02-29T23:17:13.776Z,65.20
2024-02-29T23:19:40.683Z,70.55
2024-02-29T23:22:07.614Z,63.10
2024-02-29T23:24:34.858Z,65.47
2024-02-29T23:27:01.728Z,98.50
2024-02-29T23:29:28.599Z,75.32
2024-02-29T23:31:58.729Z,54.35
2024-02-29T23:34:26.026Z,58.97
2024-02-29T23:36:53.144Z,69.07
2024-02-29T23:39:20.060Z,67.88
2024-02-29T23:41:46.994Z,61.00
2024-02-29T23:44:13.879Z,63.28
2024-02-29T23:46:42.243Z,61.08
2024-02-29T23:49:09.171Z,76.03
2024-02-29T23:51:37.423Z,72.68
2024-02-29T23:54:04.303Z,61.58
2024-02-29T23:56:31.162Z,57.15
2024-02-29T23:58:58.032Z,63.33
